Hudson, Florida
Current Conditions -  °F | °C
As of 11:53 PM on Sunday 19 Oct 2014 (Local Time) from KBKV Reporting Station
Clear Clear  
Wind Chill: 66°   Ceiling: Unl
Heat Index: 66°   Visibility: 10mi
Dew Point: 62°   Wind: 5mph
Humidity: 87%   Direction: 50°NE
Pressure: 30.07"   Gusts: NA
Location:  28.36°N, 82.69°W
Report Text: KBKV 200353Z AUTO 05004KT 10SM CLR 19/17 A3007 RMK AO2 SLP181 T01890167
Loading
Personal Weather Stations






























Interactive Weather Map New forecast layout! Learn more

10-Day Weather Forecast

Advertisements
Track Severe Weather on mobile